createdAt,value
2022-12-11T00:00:48.943Z,37.17
2022-12-11T00:03:19.242Z,33.22
2022-12-11T00:05:46.256Z,38.80
2022-12-11T00:08:13.754Z,36.85
2022-12-11T00:10:46.727Z,34.67
2022-12-11T00:13:13.394Z,38.28
2022-12-11T00:15:40.032Z,31.70
2022-12-11T00:18:06.705Z,35.92
2022-12-11T00:20:33.352Z,36.40
2022-12-11T00:22:59.962Z,30.98
2022-12-11T00:25:26.702Z,29.02
2022-12-11T00:27:53.339Z,33.70
2022-12-11T00:30:20.022Z,32.28
2022-12-11T00:32:46.730Z,38.22
2022-12-11T00:35:13.647Z,33.85
2022-12-11T00:37:40.639Z,35.90
2022-12-11T00:40:07.956Z,32.65
2022-12-11T00:42:34.662Z,32.90
2022-12-11T00:45:01.396Z,30.30
2022-12-11T00:47:28.059Z,33.95
2022-12-11T00:49:54.729Z,33.38
2022-12-11T00:52:21.447Z,30.70
2022-12-11T00:54:48.144Z,35.45
2022-12-11T00:57:14.838Z,34.65
2022-12-11T00:59:41.525Z,29.73
2022-12-11T01:02:08.251Z,34.47
2022-12-11T01:04:36.625Z,33.33
2022-12-11T01:07:03.786Z,32.72
2022-12-11T01:09:30.505Z,32.20
2022-12-11T01:11:57.231Z,34.88
2022-12-11T01:14:23.976Z,33.33
2022-12-11T01:16:50.770Z,32.38
2022-12-11T01:19:17.521Z,36.03
2022-12-11T01:21:44.216Z,32.72
2022-12-11T01:24:10.916Z,36.08
2022-12-11T01:26:37.595Z,38.33
2022-12-11T01:29:04.400Z,36.47
2022-12-11T01:31:31.139Z,35.65
2022-12-11T01:33:57.816Z,33.67
2022-12-11T01:36:24.695Z,37.10
2022-12-11T01:38:51.776Z,32.58
2022-12-11T01:41:18.947Z,34.05
2022-12-11T01:44:04.051Z,37.83
2022-12-11T01:46:33.713Z,33.27
2022-12-11T01:49:03.263Z,37.60
2022-12-11T01:51:33.247Z,32.85
2022-12-11T01:54:05.525Z,38.17
2022-12-11T01:56:34.333Z,33.40
2022-12-11T01:59:04.687Z,33.92
2022-12-11T02:01:33.709Z,37.53
2022-12-11T02:04:01.323Z,34.95
2022-12-11T02:06:40.527Z,34.35
2022-12-11T02:09:11.872Z,33.95
2022-12-11T02:12:06.546Z,37.28
2022-12-11T02:14:52.880Z,36.25
2022-12-11T02:17:22.725Z,35.95
2022-12-11T02:20:07.910Z,34.35
2022-12-11T02:23:12.948Z,35.03
2022-12-11T02:26:14.618Z,35.95
2022-12-11T02:28:41.307Z,34.45
2022-12-11T02:31:32.764Z,37.17
2022-12-11T02:34:02.953Z,37.72
2022-12-11T02:36:34.580Z,38.67
2022-12-11T02:39:03.482Z,36.47
2022-12-11T02:41:32.870Z,38.95
2022-12-11T02:44:01.849Z,37.45
2022-12-11T02:46:29.607Z,39.83
2022-12-11T02:48:57.727Z,43.67
2022-12-11T02:51:29.761Z,37.20
2022-12-11T02:53:59.044Z,38.28
2022-12-11T02:56:43.092Z,38.05
2022-12-11T02:59:15.292Z,39.60
2022-12-11T03:01:43.057Z,39.72
2022-12-11T03:04:10.091Z,41.70
2022-12-11T03:06:43.605Z,40.83
2022-12-11T03:09:10.729Z,40.83
2022-12-11T03:11:37.454Z,39.70
2022-12-11T03:14:04.402Z,46.08
2022-12-11T03:16:39.467Z,43.13
2022-12-11T03:19:31.092Z,42.20
2022-12-11T03:22:04.837Z,40.25
2022-12-11T03:24:38.626Z,43.13
2022-12-11T03:27:19.680Z,41.90
2022-12-11T03:30:00.403Z,39.40
2022-12-11T03:32:35.323Z,40.15
2022-12-11T03:35:05.409Z,38.75
2022-12-11T03:37:37.259Z,37.25
2022-12-11T03:40:16.042Z,43.22
2022-12-11T03:42:45.178Z,40.08
2022-12-11T03:45:13.246Z,42.85
2022-12-11T03:47:42.801Z,40.03
2022-12-11T03:50:12.446Z,39.90
2022-12-11T03:52:45.781Z,41.13
2022-12-11T03:55:14.859Z,42.10
2022-12-11T03:57:41.720Z,41.72
2022-12-11T04:00:15.943Z,39.42
2022-12-11T04:02:42.879Z,41.70
2022-12-11T04:05:10.948Z,46.05
2022-12-11T04:07:38.084Z,41.65
2022-12-11T04:10:06.027Z,44.45
2022-12-11T04:12:32.710Z,40.92
2022-12-11T04:14:59.424Z,45.97
2022-12-11T04:17:26.125Z,39.78
2022-12-11T04:19:52.921Z,40.38
2022-12-11T04:22:19.778Z,40.33
2022-12-11T04:24:48.665Z,39.55
2022-12-11T04:27:15.677Z,39.50
2022-12-11T04:29:42.371Z,40.88
2022-12-11T04:32:09.068Z,40.60
2022-12-11T04:34:35.767Z,39.05
2022-12-11T04:37:02.491Z,37.95
2022-12-11T04:39:29.186Z,41.70
2022-12-11T04:41:55.824Z,44.00
2022-12-11T04:44:22.518Z,41.13
2022-12-11T04:46:49.258Z,44.42
2022-12-11T04:49:15.963Z,45.05
2022-12-11T04:51:42.634Z,40.92
2022-12-11T04:54:09.333Z,44.58
2022-12-11T04:56:36.022Z,44.42
2022-12-11T04:59:02.703Z,44.50
2022-12-11T05:01:29.416Z,43.35
2022-12-11T05:03:56.101Z,41.03
2022-12-11T05:06:22.808Z,40.67
2022-12-11T05:08:49.506Z,44.15
2022-12-11T05:11:16.158Z,41.10
2022-12-11T05:13:43.916Z,41.75
2022-12-11T05:16:12.953Z,40.38
2022-12-11T05:18:39.807Z,41.85
2022-12-11T05:21:10.742Z,41.47
2022-12-11T05:23:38.388Z,42.35
2022-12-11T05:26:12.794Z,48.42
2022-12-11T05:28:39.925Z,42.97
2022-12-11T05:31:15.954Z,38.20
2022-12-11T05:33:43.747Z,42.33
2022-12-11T05:36:17.095Z,42.67
2022-12-11T05:38:44.003Z,41.05
2022-12-11T05:41:13.483Z,41.97
2022-12-11T05:43:40.197Z,42.83
2022-12-11T05:46:18.148Z,40.80
2022-12-11T05:48:46.618Z,43.58
2022-12-11T05:51:14.662Z,39.25
2022-12-11T05:53:42.765Z,40.42
2022-12-11T05:56:14.831Z,39.53
2022-12-11T05:58:42.362Z,42.97
2022-12-11T06:01:12.115Z,44.22
2022-12-11T06:03:38.863Z,46.00
2022-12-11T06:06:07.387Z,41.47
2022-12-11T06:08:34.980Z,40.92
2022-12-11T06:11:02.000Z,38.15
2022-12-11T06:13:28.746Z,35.78
2022-12-11T06:15:56.006Z,33.33
2022-12-11T06:18:22.673Z,34.50
2022-12-11T06:20:49.326Z,34.67
2022-12-11T06:23:16.013Z,36.45
2022-12-11T06:25:42.688Z,36.10
2022-12-11T06:28:09.362Z,33.15
2022-12-11T06:30:38.696Z,33.78
2022-12-11T06:33:06.682Z,35.92
2022-12-11T06:35:38.620Z,36.03
2022-12-11T06:38:08.713Z,32.28
2022-12-11T06:40:35.345Z,36.05
2022-12-11T06:43:01.983Z,34.60
2022-12-11T06:45:28.744Z,36.13
2022-12-11T06:47:55.602Z,34.60
2022-12-11T06:50:22.281Z,34.88
2022-12-11T06:52:49.179Z,31.83
2022-12-11T06:55:15.947Z,32.45
2022-12-11T06:57:42.651Z,32.80
2022-12-11T07:00:10.048Z,33.08
2022-12-11T07:02:36.780Z,38.63
2022-12-11T07:05:03.739Z,33.65
2022-12-11T07:07:30.388Z,33.65
2022-12-11T07:09:57.084Z,33.72
2022-12-11T07:12:24.124Z,34.92
2022-12-11T07:14:50.826Z,33.28
2022-12-11T07:17:17.482Z,31.85
2022-12-11T07:19:44.165Z,31.20
2022-12-11T07:22:10.832Z,32.67
2022-12-11T07:24:37.507Z,29.40
2022-12-11T07:27:04.748Z,35.70
2022-12-11T07:29:31.465Z,30.90
2022-12-11T07:31:58.183Z,32.67
2022-12-11T07:34:24.922Z,28.42
2022-12-11T07:36:51.632Z,26.98
2022-12-11T07:39:18.288Z,25.48
2022-12-11T07:41:45.006Z,26.77
2022-12-11T07:44:11.693Z,26.60
2022-12-11T07:46:38.499Z,27.70
2022-12-11T07:49:06.138Z,28.67
2022-12-11T07:51:36.117Z,29.52
2022-12-11T07:54:05.687Z,28.15
2022-12-11T07:56:33.036Z,28.42
2022-12-11T07:59:01.388Z,26.95
2022-12-11T08:01:29.469Z,30.00
2022-12-11T08:03:56.760Z,29.20
2022-12-11T08:06:31.750Z,28.77
2022-12-11T08:08:59.744Z,27.75
2022-12-11T08:11:27.113Z,27.27
2022-12-11T08:13:55.238Z,32.25
2022-12-11T08:16:22.316Z,27.80
2022-12-11T08:18:49.358Z,27.92
2022-12-11T08:21:24.542Z,28.70
2022-12-11T08:23:52.649Z,30.35
2022-12-11T08:26:22.269Z,31.65
2022-12-11T08:28:49.055Z,30.70
2022-12-11T08:31:17.359Z,27.92
2022-12-11T08:33:45.113Z,34.58
2022-12-11T08:36:14.653Z,32.13
2022-12-11T08:38:42.061Z,35.38
2022-12-11T08:41:20.692Z,29.83
2022-12-11T08:43:47.773Z,30.48
2022-12-11T08:46:15.627Z,29.05
2022-12-11T08:48:43.828Z,29.05
2022-12-11T08:51:15.492Z,33.17
2022-12-11T08:53:42.621Z,29.92
2022-12-11T08:56:15.105Z,31.17
2022-12-11T08:58:43.011Z,36.47
2022-12-11T09:01:13.047Z,29.52
2022-12-11T09:03:40.246Z,31.75
2022-12-11T09:06:08.958Z,29.83
2022-12-11T09:08:36.009Z,29.63
2022-12-11T09:11:11.072Z,31.08
2022-12-11T09:13:38.972Z,29.85
2022-12-11T09:16:07.659Z,29.95
2022-12-11T09:18:34.408Z,29.60
2022-12-11T09:21:07.119Z,30.85
2022-12-11T09:23:34.061Z,32.13
2022-12-11T09:26:04.650Z,29.48
2022-12-11T09:28:31.688Z,31.90
2022-12-11T09:30:58.541Z,33.60
2022-12-11T09:33:25.365Z,34.22
2022-12-11T09:36:02.202Z,31.88
2022-12-11T09:38:30.014Z,32.53
2022-12-11T09:40:56.990Z,31.95
2022-12-11T09:43:46.636Z,30.00
2022-12-11T09:46:16.056Z,27.70
2022-12-11T09:48:46.555Z,29.88
2022-12-11T09:51:21.677Z,31.27
2022-12-11T09:53:48.778Z,28.50
2022-12-11T09:56:24.850Z,32.50
2022-12-11T09:59:17.338Z,32.45
2022-12-11T10:02:17.205Z,25.95
2022-12-11T10:05:08.605Z,27.67
2022-12-11T10:07:56.446Z,29.27
2022-12-11T10:10:42.380Z,29.70
2022-12-11T10:13:38.304Z,25.98
2022-12-11T10:16:20.455Z,25.77
2022-12-11T10:18:48.646Z,28.98
2022-12-11T10:21:18.268Z,57.65
2022-12-11T10:24:00.561Z,28.63
2022-12-11T10:26:29.559Z,26.42
2022-12-11T10:29:00.786Z,27.33
2022-12-11T10:31:49.820Z,27.70
2022-12-11T10:34:22.478Z,29.27
2022-12-11T10:36:49.421Z,29.48
2022-12-11T10:39:21.566Z,29.90
2022-12-11T10:41:53.940Z,27.48
2022-12-11T10:44:22.074Z,34.33
2022-12-11T10:47:06.574Z,29.55
2022-12-11T10:49:36.265Z,30.38
2022-12-11T10:52:12.914Z,30.48
2022-12-11T10:54:42.226Z,31.42
2022-12-11T10:57:11.244Z,31.08
2022-12-11T10:59:47.856Z,29.05
2022-12-11T11:02:32.813Z,34.40
2022-12-11T11:05:01.516Z,30.30
2022-12-11T11:07:30.344Z,28.83
2022-12-11T11:10:12.264Z,28.80
2022-12-11T11:12:49.773Z,29.70
2022-12-11T11:15:29.214Z,26.80
2022-12-11T11:18:11.937Z,25.67
2022-12-11T11:20:46.971Z,29.48
2022-12-11T11:23:16.237Z,29.05
2022-12-11T11:25:58.030Z,27.60
2022-12-11T11:28:29.357Z,31.20
2022-12-11T11:31:14.087Z,28.52
2022-12-11T11:34:06.384Z,32.45
2022-12-11T11:36:35.645Z,30.45
2022-12-11T11:39:26.037Z,31.25
2022-12-11T11:42:11.808Z,30.10
2022-12-11T11:45:27.923Z,30.35
2022-12-11T11:48:11.330Z,32.15
2022-12-11T11:50:44.852Z,28.20
2022-12-11T11:53:22.211Z,26.00
2022-12-11T11:56:20.385Z,31.90
2022-12-11T11:59:20.249Z,29.65
2022-12-11T12:01:47.242Z,30.30
2022-12-11T12:04:14.662Z,29.92
2022-12-11T12:07:08.308Z,29.08
2022-12-11T12:09:50.033Z,29.67
2022-12-11T12:12:33.817Z,31.50
2022-12-11T12:15:09.989Z,31.33
2022-12-11T12:17:55.775Z,30.20
2022-12-11T12:23:40.685Z,30.17
2022-12-11T12:26:20.231Z,29.30
2022-12-11T12:28:55.745Z,28.88
2022-12-11T12:34:25.201Z,36.80
2022-12-11T12:37:16.044Z,32.00
2022-12-11T12:40:14.729Z,31.25
2022-12-11T12:42:50.889Z,29.10
2022-12-11T12:45:23.012Z,28.27
2022-12-11T12:47:53.495Z,30.75
2022-12-11T12:50:27.171Z,31.25
2022-12-11T12:52:55.274Z,29.45
2022-12-11T12:55:26.753Z,36.13
2022-12-11T12:58:06.227Z,29.90
2022-12-11T13:00:40.412Z,33.80
2022-12-11T13:03:17.453Z,28.95
2022-12-11T13:05:55.431Z,32.05
2022-12-11T13:08:39.938Z,30.63
2022-12-11T13:11:10.001Z,29.65
2022-12-11T13:13:41.384Z,33.28
2022-12-11T13:16:35.572Z,28.23
2022-12-11T13:19:02.365Z,33.38
2022-12-11T13:21:35.228Z,31.60
2022-12-11T13:24:17.572Z,30.85
2022-12-11T13:26:44.489Z,32.97
2022-12-11T13:29:39.904Z,32.65
2022-12-11T13:32:09.529Z,30.05
2022-12-11T13:34:42.637Z,31.25
2022-12-11T13:37:32.899Z,30.17
2022-12-11T13:40:02.770Z,29.20
2022-12-11T13:42:36.085Z,34.05
2022-12-11T13:45:04.310Z,32.83
2022-12-11T13:47:32.788Z,34.88
2022-12-11T13:50:23.851Z,30.90
2022-12-11T13:52:58.438Z,30.45
2022-12-11T13:55:27.777Z,28.35
2022-12-11T13:57:54.390Z,32.08
2022-12-11T14:00:24.087Z,34.30
2022-12-11T14:02:52.925Z,33.53
2022-12-11T14:05:20.337Z,31.20
2022-12-11T14:07:50.639Z,32.58
2022-12-11T14:10:19.690Z,32.83
2022-12-11T14:13:06.819Z,31.13
2022-12-11T14:15:36.055Z,34.55
2022-12-11T14:18:04.832Z,35.22
2022-12-11T14:20:33.738Z,30.90
2022-12-11T14:23:23.181Z,30.92
2022-12-11T14:25:57.490Z,31.77
2022-12-11T14:28:26.156Z,32.83
2022-12-11T14:30:55.401Z,32.75
2022-12-11T14:33:51.676Z,33.95
2022-12-11T14:36:18.699Z,35.50
2022-12-11T14:38:55.390Z,30.92
2022-12-11T14:41:26.972Z,30.73
2022-12-11T14:43:59.201Z,34.42
2022-12-11T14:47:03.170Z,34.00
2022-12-11T14:49:45.990Z,32.97
2022-12-11T14:52:22.669Z,32.65
2022-12-11T14:55:01.381Z,36.10
2022-12-11T14:57:31.121Z,38.22
2022-12-11T14:59:58.282Z,34.38
2022-12-11T15:02:25.013Z,32.55
2022-12-11T15:05:17.917Z,34.13
2022-12-11T15:07:54.247Z,36.40
2022-12-11T15:10:32.424Z,37.13
2022-12-11T15:12:59.462Z,33.50
2022-12-11T15:15:27.970Z,32.75
2022-12-11T15:17:54.936Z,32.58
2022-12-11T15:20:25.940Z,34.95
2022-12-11T15:22:53.281Z,34.90
2022-12-11T15:25:25.721Z,34.97
2022-12-11T15:27:55.278Z,38.95
2022-12-11T15:30:21.935Z,38.22
2022-12-11T15:32:48.592Z,37.30
2022-12-11T15:35:28.020Z,38.03
2022-12-11T15:37:56.666Z,36.60
2022-12-11T15:40:24.421Z,35.72
2022-12-11T15:42:52.102Z,37.53
2022-12-11T15:45:21.160Z,34.35
2022-12-11T15:47:48.897Z,38.22
2022-12-11T15:50:23.019Z,36.22
2022-12-11T15:52:51.411Z,35.28
2022-12-11T15:55:18.733Z,37.25
2022-12-11T15:57:52.401Z,35.10
2022-12-11T16:00:20.331Z,34.40
2022-12-11T16:02:47.844Z,39.53
2022-12-11T16:05:15.249Z,35.78
2022-12-11T16:07:42.520Z,34.20
2022-12-11T16:10:15.590Z,35.20
2022-12-11T16:12:42.482Z,34.97
2022-12-11T16:15:10.984Z,35.08
2022-12-11T16:17:37.966Z,32.95
2022-12-11T16:20:05.618Z,33.47
2022-12-11T16:22:32.305Z,34.25
2022-12-11T16:24:59.001Z,36.00
2022-12-11T16:27:25.715Z,34.55
2022-12-11T16:29:52.496Z,37.00
2022-12-11T16:32:19.525Z,34.67
2022-12-11T16:34:46.320Z,37.58
2022-12-11T16:37:13.001Z,37.58
2022-12-11T16:39:39.877Z,34.58
2022-12-11T16:42:06.651Z,35.53
2022-12-11T16:44:33.415Z,36.53
2022-12-11T16:47:00.087Z,36.72
2022-12-11T16:49:26.934Z,33.70
2022-12-11T16:51:53.587Z,37.38
2022-12-11T16:54:20.246Z,34.63
2022-12-11T16:56:46.924Z,38.22
2022-12-11T16:59:13.581Z,36.00
2022-12-11T17:01:40.745Z,37.67
2022-12-11T17:04:07.701Z,38.63
2022-12-11T17:06:34.655Z,37.13
2022-12-11T17:09:01.469Z,38.55
2022-12-11T17:11:28.318Z,37.20
2022-12-11T17:13:59.358Z,36.00
2022-12-11T17:16:27.689Z,38.13
2022-12-11T17:18:54.923Z,39.78
2022-12-11T17:21:22.232Z,38.25
2022-12-11T17:23:49.835Z,41.25
2022-12-11T17:26:17.031Z,40.10
2022-12-11T17:28:43.971Z,40.10
2022-12-11T17:31:14.485Z,41.45
2022-12-11T17:33:41.341Z,40.42
2022-12-11T17:36:08.883Z,41.22
2022-12-11T17:38:35.687Z,41.80
2022-12-11T17:41:09.059Z,42.28
2022-12-11T17:43:35.814Z,40.33
2022-12-11T17:46:03.586Z,38.60
2022-12-11T17:48:30.468Z,40.10
2022-12-11T17:50:57.578Z,41.45
2022-12-11T17:53:24.599Z,43.10
2022-12-11T17:55:51.578Z,42.42
2022-12-11T17:58:21.217Z,44.78
2022-12-11T18:00:50.369Z,44.40
2022-12-11T18:03:17.744Z,43.83
2022-12-11T18:05:50.114Z,41.35
2022-12-11T18:08:22.995Z,46.42
2022-12-11T18:10:49.677Z,43.17
2022-12-11T18:13:16.577Z,43.22
2022-12-11T18:15:43.359Z,47.47
2022-12-11T18:18:10.446Z,44.55
2022-12-11T18:20:39.918Z,44.15
2022-12-11T18:23:06.782Z,47.35
2022-12-11T18:25:33.483Z,45.17
2022-12-11T18:28:00.438Z,51.20
2022-12-11T18:30:27.197Z,44.33
2022-12-11T18:32:53.974Z,46.40
2022-12-11T18:35:20.718Z,45.97
2022-12-11T18:37:47.420Z,45.33
2022-12-11T18:40:14.057Z,41.10
2022-12-11T18:42:40.751Z,47.67
2022-12-11T18:45:08.041Z,43.50
2022-12-11T18:47:34.733Z,42.70
2022-12-11T18:50:07.340Z,39.72
2022-12-11T18:52:35.042Z,44.90
2022-12-11T18:55:01.827Z,40.85
2022-12-11T18:57:28.474Z,41.50
2022-12-11T18:59:55.254Z,40.58
2022-12-11T19:02:22.712Z,41.35
2022-12-11T19:04:49.545Z,40.70
2022-12-11T19:07:16.216Z,42.28
2022-12-11T19:09:47.855Z,45.13
2022-12-11T19:12:15.094Z,44.83
2022-12-11T19:14:41.852Z,43.60
2022-12-11T19:17:08.546Z,43.45
2022-12-11T19:19:35.238Z,45.08
2022-12-11T19:22:01.946Z,41.47
2022-12-11T19:24:28.663Z,42.33
2022-12-11T19:26:55.343Z,44.65
2022-12-11T19:29:24.952Z,42.03
2022-12-11T19:31:51.947Z,41.60
2022-12-11T19:34:18.705Z,47.47
2022-12-11T19:36:45.393Z,45.05
2022-12-11T19:39:13.441Z,42.97
2022-12-11T19:41:41.016Z,42.28
2022-12-11T19:44:08.047Z,44.75
2022-12-11T19:46:35.463Z,41.28
2022-12-11T19:49:02.255Z,44.60
2022-12-11T19:51:35.019Z,42.95
2022-12-11T19:54:02.127Z,42.40
2022-12-11T19:56:29.364Z,43.17
2022-12-11T19:58:56.198Z,43.97
2022-12-11T20:01:28.206Z,39.45
2022-12-11T20:03:57.555Z,46.03
2022-12-11T20:06:26.520Z,42.28
2022-12-11T20:08:53.209Z,40.30
2022-12-11T20:11:19.988Z,39.20
2022-12-11T20:13:50.011Z,42.13
2022-12-11T20:16:28.849Z,45.90
2022-12-11T20:19:05.596Z,43.63
2022-12-11T20:21:32.225Z,39.28
2022-12-11T20:23:59.699Z,45.05
2022-12-11T20:26:26.547Z,42.55
2022-12-11T20:28:53.563Z,43.50
2022-12-11T20:31:23.935Z,41.22
2022-12-11T20:33:55.657Z,41.90
2022-12-11T20:36:22.907Z,39.83
2022-12-11T20:38:50.534Z,43.53
2022-12-11T20:41:20.375Z,43.78
2022-12-11T20:43:47.971Z,46.97
2022-12-11T20:46:16.909Z,46.03
2022-12-11T20:48:46.701Z,45.42
2022-12-11T20:51:16.801Z,47.25
2022-12-11T20:53:46.349Z,46.50
2022-12-11T20:56:22.210Z,44.70
2022-12-11T20:58:50.193Z,45.40
2022-12-11T21:01:21.775Z,43.00
2022-12-11T21:03:49.411Z,49.20
2022-12-11T21:06:31.810Z,44.85
2022-12-11T21:09:06.529Z,46.55
2022-12-11T21:11:33.449Z,47.25
2022-12-11T21:14:00.202Z,47.03
2022-12-11T21:16:27.560Z,48.92
2022-12-11T21:18:55.554Z,49.25
2022-12-11T21:21:22.260Z,48.38
2022-12-11T21:23:49.018Z,49.80
2022-12-11T21:26:15.997Z,51.38
2022-12-11T21:28:42.815Z,50.42
2022-12-11T21:31:14.897Z,49.50
2022-12-11T21:33:42.154Z,52.33
2022-12-11T21:36:12.289Z,52.28
2022-12-11T21:38:40.322Z,51.33
2022-12-11T21:41:12.985Z,51.35
2022-12-11T21:44:12.924Z,51.72
2022-12-11T21:46:31.746Z,56.70
2022-12-11T21:48:58.449Z,54.85
2022-12-11T21:51:32.542Z,61.08
2022-12-11T21:54:13.568Z,54.30
2022-12-11T21:56:41.115Z,60.22
2022-12-11T21:59:07.901Z,60.33
2022-12-11T22:01:42.521Z,58.08
2022-12-11T22:04:10.765Z,62.65
2022-12-11T22:06:37.862Z,56.53
2022-12-11T22:09:04.745Z,61.40
2022-12-11T22:11:33.256Z,55.22
2022-12-11T22:14:00.345Z,61.08
2022-12-11T22:16:27.343Z,60.40
2022-12-11T22:18:54.095Z,55.47
2022-12-11T22:21:21.041Z,58.53
2022-12-11T22:23:47.794Z,56.85
2022-12-11T22:26:23.731Z,57.38
2022-12-11T22:28:51.263Z,59.75
2022-12-11T22:31:21.893Z,60.78
2022-12-11T22:33:49.899Z,57.42
2022-12-11T22:36:17.098Z,59.08
2022-12-11T22:38:43.826Z,60.88
2022-12-11T22:41:12.929Z,59.78
2022-12-11T22:43:42.040Z,60.30
2022-12-11T22:46:13.623Z,56.80
2022-12-11T22:48:40.288Z,59.58
2022-12-11T22:51:07.268Z,55.45
2022-12-11T22:53:33.992Z,58.72
2022-12-11T22:56:04.898Z,56.20
2022-12-11T22:58:32.080Z,59.13
2022-12-11T23:00:58.801Z,61.72
2022-12-11T23:03:25.506Z,62.08
2022-12-11T23:05:52.264Z,56.80
2022-12-11T23:08:19.094Z,59.10
2022-12-11T23:10:45.868Z,58.00
2022-12-11T23:13:12.541Z,59.72
2022-12-11T23:15:39.221Z,54.25
2022-12-11T23:18:08.488Z,59.00
2022-12-11T23:20:35.188Z,58.63
2022-12-11T23:23:01.847Z,62.38
2022-12-11T23:25:28.520Z,60.13
2022-12-11T23:27:55.201Z,60.15
2022-12-11T23:30:21.893Z,59.58
2022-12-11T23:32:48.564Z,64.10
2022-12-11T23:35:15.469Z,57.45
2022-12-11T23:37:42.257Z,56.38
2022-12-11T23:40:09.677Z,60.33
2022-12-11T23:42:36.494Z,59.67
2022-12-11T23:45:03.309Z,56.88
2022-12-11T23:47:29.993Z,60.40
2022-12-11T23:49:56.659Z,57.83
2022-12-11T23:52:23.324Z,57.67
2022-12-11T23:54:49.981Z,59.17
2022-12-11T23:57:16.634Z,60.75
2022-12-11T23:59:43.313Z,61.75
